Sensation — C6FM8 — position and weather

sailwx.info

Track history (hours):
 
Tides and Currents Weather Stations Pressure Air Temp Water Temp Dewpoint Dewpoint Depression Visibility Wind Speed Wind Dir Waves Ship Positions

Sensation

Last reported at 2018-Apr-26 02:00 UTC. Time now 2018-Apr-26 15:35 UTC.
Position N 18°48' W 078°24'.

Type: Ship. MMSI: 309697000.

Wind from 070 at 7 knots

Barometer 1014.9 mb
Air temperature 26.0 ° C
Visibility: greater than 10.8 NM
Dewpoint 24.6 ° C
Water temperature 27.7 ° C

Date/timePositionNaut miles runAvg speedWind from/ knotsBaromVisibWave heightAir tempDewpointWater temp
2018-Apr-26 02:00N 18°48' W 078°24'161 8.5 070 / 71014.910.8 26.024.627.7
2018-Apr-25 07:00N 19°12' W 075°36'6917.3 190 / 51015.210.8 26.021.525.5
2018-Apr-25 03:00N 19°42' W 074°30'38015.8 240 / 51017.010.8 26.023.126.6
2018-Apr-24 03:00N 24°12' W 079°18'1918.8 150 / 151017.510.8 26.023.125.5
2018-Apr-24 02:00N 24°30' W 079°24'4918.9 140 / 101017.710.8 26.023.125.4
2018-Apr-23 23:23N 25°18' W 079°34'717.5
2018-Apr-23 23:00N 25°24' W 079°37'816.2
2018-Apr-23 22:30N 25°32' W 079°41'815.3
2018-Apr-23 22:00N 25°38' W 079°46'816.0
2018-Apr-23 21:30N 25°42' W 079°54'815.6
2018-Apr-23 21:00N 25°45' W 080°02'612.4
2018-Apr-23 20:30N 25°46' W 080°08'2 4.4
2018-Apr-23 20:00N 25°47' W 080°11'0 0.6
2018-Apr-23 19:29N 25°47' W 080°10'0 0.0
2018-Apr-23 18:59N 25°47' W 080°10'0 0.0
2018-Apr-23 18:29N 25°47' W 080°10'0 0.0
2018-Apr-23 17:59N 25°47' W 080°10'0 0.0
2018-Apr-23 17:29N 25°47' W 080°10'0 0.0
2018-Apr-23 16:59N 25°47' W 080°10'0 0.0
2018-Apr-23 16:23N 25°47' W 080°10'0 0.0
2018-Apr-23 15:59N 25°47' W 080°10'0 0.0
2018-Apr-23 15:29N 25°47' W 080°10'0 0.0
2018-Apr-23 14:59N 25°47' W 080°10'0 0.0
2018-Apr-23 14:26N 25°47' W 080°10'0 0.0
2018-Apr-23 13:59N 25°47' W 080°10'0 0.0
2018-Apr-23 13:29N 25°47' W 080°10'0 0.0
2018-Apr-23 12:59N 25°47' W 080°10'0 0.0
2018-Apr-23 12:29N 25°47' W 080°10'0 0.0
2018-Apr-23 11:59N 25°47' W 080°10'0 0.0
2018-Apr-23 11:26N 25°47' W 080°10'0 0.0
2018-Apr-23 11:00N 25°47' W 080°10'2 3.9
2018-Apr-23 10:30N 25°46' W 080°08'510.3
2018-Apr-23 10:00N 25°47' W 080°03'510.4
2018-Apr-23 09:30N 25°43' W 079°58'510.9
2018-Apr-23 09:00N 25°38' W 079°56'713.1
2018-Apr-23 08:30N 25°32' W 079°56'613.0
2018-Apr-23 08:00N 25°25' W 079°56'713.5
2018-Apr-23 07:30N 25°18' W 079°57'2516.3
2018-Apr-23 06:00N 24°54' W 080°00'4912.2 110 / 201016.910.8 26.023.125.0
2018-Apr-23 02:00N 24°18' W 080°36'41217.8 120 / 201018.210.8 26.023.125.1
2018-Apr-22 02:53N 20°40' W 086°54'719.9
2018-Apr-22 02:30N 20°34' W 086°59'510.3
2018-Apr-22 01:59N 20°29' W 086°59'0 0.1
2018-Apr-22 01:29N 20°29' W 086°59'0 0.0
2018-Apr-22 00:59N 20°29' W 086°59'0 0.0
2018-Apr-22 00:26N 20°29' W 086°59'0 0.0
2018-Apr-21 23:59N 20°29' W 086°59'0 0.0
2018-Apr-21 23:23N 20°29' W 086°59'0 0.0
2018-Apr-21 22:59N 20°29' W 086°59'0 0.0
2018-Apr-21 22:26N 20°29' W 086°59'0 0.0
2018-Apr-21 21:59N 20°29' W 086°59'0 0.0
2018-Apr-21 21:29N 20°29' W 086°59'0 0.0
2018-Apr-21 20:59N 20°29' W 086°59'0 0.0
2018-Apr-21 20:29N 20°29' W 086°59'0 0.0
2018-Apr-21 19:59N 20°29' W 086°59'0 0.0
2018-Apr-21 19:29N 20°29' W 086°59'0 0.0
2018-Apr-21 18:59N 20°29' W 086°59'0 0.0
2018-Apr-21 18:29N 20°29' W 086°59'0 0.0
2018-Apr-21 17:59N 20°29' W 086°59'0 0.0
2018-Apr-21 17:29N 20°29' W 086°59'0 0.0
2018-Apr-21 16:59N 20°29' W 086°59'0 0.0
2018-Apr-21 16:29N 20°29' W 086°59'0 0.0
2018-Apr-21 15:59N 20°29' W 086°59'0 0.0
2018-Apr-21 15:30N 20°29' W 086°59'2 3.4
2018-Apr-21 15:00N 20°30' W 086°59'5 8.9
2018-Apr-21 14:30N 20°35' W 086°57'611.7
2018-Apr-21 13:59N 20°39' W 086°54'23818.4
2018-Apr-21 01:00N 23°12' W 083°36'215 9.3 050 / 151020.010.8 25.018.825.0
2018-Apr-20 02:00N 24°48' W 080°06'3013.0 120 / 41020.310.8 25.017.025.2
2018-Apr-19 23:39N 25°14' W 079°49'212.6
2018-Apr-19 23:30N 25°16' W 079°48'612.5
2018-Apr-19 23:00N 25°22' W 079°48'612.4
2018-Apr-19 22:30N 25°28' W 079°48'612.3
2018-Apr-19 22:00N 25°34' W 079°50'612.5
2018-Apr-19 21:30N 25°39' W 079°54'712.9
2018-Apr-19 21:00N 25°43' W 079°60'511.3
2018-Apr-19 20:31N 25°46' W 080°05'5 9.3
2018-Apr-19 20:00N 25°47' W 080°10'0 0.0
2018-Apr-19 19:25N 25°47' W 080°10'0 0.0
2018-Apr-19 18:58N 25°47' W 080°10'0 0.0
2018-Apr-19 18:28N 25°47' W 080°10'0 0.0
2018-Apr-19 17:58N 25°47' W 080°10'0 0.0
2018-Apr-19 17:28N 25°47' W 080°10'0 0.0
2018-Apr-19 16:55N 25°47' W 080°10'0 0.0
2018-Apr-19 16:28N 25°47' W 080°10'0 0.0
2018-Apr-19 15:58N 25°47' W 080°10'0 0.0
2018-Apr-19 15:28N 25°47' W 080°10'0 0.0
2018-Apr-19 14:58N 25°47' W 080°10'0 0.0
2018-Apr-19 14:28N 25°47' W 080°10'0 0.0
2018-Apr-19 13:58N 25°47' W 080°10'0 0.0
2018-Apr-19 13:28N 25°47' W 080°10'0 0.0
2018-Apr-19 12:58N 25°47' W 080°10'0 0.0
2018-Apr-19 12:28N 25°47' W 080°10'0 0.0
2018-Apr-19 11:58N 25°47' W 080°10'0 0.0
2018-Apr-19 11:28N 25°47' W 080°10'0 0.0
2018-Apr-19 10:58N 25°47' W 080°10'0 0.8
2018-Apr-19 10:30N 25°47' W 080°11'1 2.9
2018-Apr-19 10:00N 25°46' W 080°09'510.4
2018-Apr-19 09:30N 25°46' W 080°03'5 9.4
2018-Apr-19 09:00N 25°46' W 079°58'5 9.5
2018-Apr-19 08:30N 25°46' W 079°53'713.9
2018-Apr-19 08:00N 25°46' W 079°45'713.2
2018-Apr-19 07:30N 25°51' W 079°40'1813.6
2018-Apr-19 06:08N 26°06' W 079°28'213.4
2018-Apr-19 05:57N 26°08' W 079°26'714.5
2018-Apr-19 05:30N 26°13' W 079°21'917.4
2018-Apr-19 05:00N 26°13' W 079°11'918.0
2018-Apr-19 04:29N 26°12' W 079°01'817.5
2018-Apr-19 04:00N 26°09' W 078°52'3016.6
2018-Apr-19 02:12N 26°02' W 078°20'415.8
2018-Apr-19 01:58N 26°01' W 078°16'1015.8
2018-Apr-19 01:20N 25°58' W 078°05'616.0
2018-Apr-19 00:57N 25°56' W 077°59'916.2
2018-Apr-19 00:22N 25°54' W 077°49'617.0
2018-Apr-19 00:01N 25°52' W 077°42'917.0
2018-Apr-18 23:30N 25°50' W 077°33'40310.0
2018-Apr-17 07:00N 22°00' W 071°30'9115.1 130 / 151016.910.8 25.020.425.0
2018-Apr-17 01:00N 22°36' W 073°00'26311.4 110 / 91018.310.8 26.023.124.8
2018-Apr-16 02:00N 25°36' W 076°30'   150 / 271019.010.8 26.023.124.0
Track history (hours):
 
Tides and Currents Weather Stations Pressure Air Temp Water Temp Dewpoint Dewpoint Depression Visibility Wind Speed Wind Dir Waves Ship Positions

Sensation

Last reported at 2018-Apr-26 02:00 UTC. Time now 2018-Apr-26 15:35 UTC.
Position N 18°48' W 078°24'.

Type: Ship. MMSI: 309697000.

Wind from 070 at 7 knots

Barometer 1014.9 mb
Air temperature 26.0 ° C
Visibility: greater than 10.8 NM
Dewpoint 24.6 ° C
Water temperature 27.7 ° C

Date/timePositionNaut miles runAvg speedWind from/ knotsBaromVisibWave heightAir tempDewpointWater temp
2018-Apr-26 02:00N 18°48' W 078°24'161 8.5 070 / 71014.910.8 26.024.627.7
2018-Apr-25 07:00N 19°12' W 075°36'6917.3 190 / 51015.210.8 26.021.525.5
2018-Apr-25 03:00N 19°42' W 074°30'38015.8 240 / 51017.010.8 26.023.126.6
2018-Apr-24 03:00N 24°12' W 079°18'1918.8 150 / 151017.510.8 26.023.125.5
2018-Apr-24 02:00N 24°30' W 079°24'4918.9 140 / 101017.710.8 26.023.125.4
2018-Apr-23 23:23N 25°18' W 079°34'717.5
2018-Apr-23 23:00N 25°24' W 079°37'816.2
2018-Apr-23 22:30N 25°32' W 079°41'815.3
2018-Apr-23 22:00N 25°38' W 079°46'816.0
2018-Apr-23 21:30N 25°42' W 079°54'815.6
2018-Apr-23 21:00N 25°45' W 080°02'612.4
2018-Apr-23 20:30N 25°46' W 080°08'2 4.4
2018-Apr-23 20:00N 25°47' W 080°11'0 0.6
2018-Apr-23 19:29N 25°47' W 080°10'0 0.0
2018-Apr-23 18:59N 25°47' W 080°10'0 0.0
2018-Apr-23 18:29N 25°47' W 080°10'0 0.0
2018-Apr-23 17:59N 25°47' W 080°10'0 0.0
2018-Apr-23 17:29N 25°47' W 080°10'0 0.0
2018-Apr-23 16:59N 25°47' W 080°10'0 0.0
2018-Apr-23 16:23N 25°47' W 080°10'0 0.0
2018-Apr-23 15:59N 25°47' W 080°10'0 0.0
2018-Apr-23 15:29N 25°47' W 080°10'0 0.0
2018-Apr-23 14:59N 25°47' W 080°10'0 0.0
2018-Apr-23 14:26N 25°47' W 080°10'0 0.0
2018-Apr-23 13:59N 25°47' W 080°10'0 0.0
2018-Apr-23 13:29N 25°47' W 080°10'0 0.0
2018-Apr-23 12:59N 25°47' W 080°10'0 0.0
2018-Apr-23 12:29N 25°47' W 080°10'0 0.0
2018-Apr-23 11:59N 25°47' W 080°10'0 0.0
2018-Apr-23 11:26N 25°47' W 080°10'0 0.0
2018-Apr-23 11:00N 25°47' W 080°10'2 3.9
2018-Apr-23 10:30N 25°46' W 080°08'510.3
2018-Apr-23 10:00N 25°47' W 080°03'510.4
2018-Apr-23 09:30N 25°43' W 079°58'510.9
2018-Apr-23 09:00N 25°38' W 079°56'713.1
2018-Apr-23 08:30N 25°32' W 079°56'613.0
2018-Apr-23 08:00N 25°25' W 079°56'713.5
2018-Apr-23 07:30N 25°18' W 079°57'2516.3
2018-Apr-23 06:00N 24°54' W 080°00'4912.2 110 / 201016.910.8 26.023.125.0
2018-Apr-23 02:00N 24°18' W 080°36'41217.8 120 / 201018.210.8 26.023.125.1
2018-Apr-22 02:53N 20°40' W 086°54'719.9
2018-Apr-22 02:30N 20°34' W 086°59'510.3
2018-Apr-22 01:59N 20°29' W 086°59'0 0.1
2018-Apr-22 01:29N 20°29' W 086°59'0 0.0
2018-Apr-22 00:59N 20°29' W 086°59'0 0.0
2018-Apr-22 00:26N 20°29' W 086°59'0 0.0
2018-Apr-21 23:59N 20°29' W 086°59'0 0.0
2018-Apr-21 23:23N 20°29' W 086°59'0 0.0
2018-Apr-21 22:59N 20°29' W 086°59'0 0.0
2018-Apr-21 22:26N 20°29' W 086°59'0 0.0
2018-Apr-21 21:59N 20°29' W 086°59'0 0.0
2018-Apr-21 21:29N 20°29' W 086°59'0 0.0
2018-Apr-21 20:59N 20°29' W 086°59'0 0.0
2018-Apr-21 20:29N 20°29' W 086°59'0 0.0
2018-Apr-21 19:59N 20°29' W 086°59'0 0.0
2018-Apr-21 19:29N 20°29' W 086°59'0 0.0
2018-Apr-21 18:59N 20°29' W 086°59'0 0.0
2018-Apr-21 18:29N 20°29' W 086°59'0 0.0
2018-Apr-21 17:59N 20°29' W 086°59'0 0.0
2018-Apr-21 17:29N 20°29' W 086°59'0 0.0
2018-Apr-21 16:59N 20°29' W 086°59'0 0.0
2018-Apr-21 16:29N 20°29' W 086°59'0 0.0
2018-Apr-21 15:59N 20°29' W 086°59'0 0.0
2018-Apr-21 15:30N 20°29' W 086°59'2 3.4
2018-Apr-21 15:00N 20°30' W 086°59'5 8.9
2018-Apr-21 14:30N 20°35' W 086°57'611.7
2018-Apr-21 13:59N 20°39' W 086°54'23818.4
2018-Apr-21 01:00N 23°12' W 083°36'215 9.3 050 / 151020.010.8 25.018.825.0
2018-Apr-20 02:00N 24°48' W 080°06'3013.0 120 / 41020.310.8 25.017.025.2
2018-Apr-19 23:39N 25°14' W 079°49'212.6
2018-Apr-19 23:30N 25°16' W 079°48'612.5
2018-Apr-19 23:00N 25°22' W 079°48'612.4
2018-Apr-19 22:30N 25°28' W 079°48'612.3
2018-Apr-19 22:00N 25°34' W 079°50'612.5
2018-Apr-19 21:30N 25°39' W 079°54'712.9
2018-Apr-19 21:00N 25°43' W 079°60'511.3
2018-Apr-19 20:31N 25°46' W 080°05'5 9.3
2018-Apr-19 20:00N 25°47' W 080°10'0 0.0
2018-Apr-19 19:25N 25°47' W 080°10'0 0.0
2018-Apr-19 18:58N 25°47' W 080°10'0 0.0
2018-Apr-19 18:28N 25°47' W 080°10'0 0.0
2018-Apr-19 17:58N 25°47' W 080°10'0 0.0
2018-Apr-19 17:28N 25°47' W 080°10'0 0.0
2018-Apr-19 16:55N 25°47' W 080°10'0 0.0
2018-Apr-19 16:28N 25°47' W 080°10'0 0.0
2018-Apr-19 15:58N 25°47' W 080°10'0 0.0
2018-Apr-19 15:28N 25°47' W 080°10'0 0.0
2018-Apr-19 14:58N 25°47' W 080°10'0 0.0
2018-Apr-19 14:28N 25°47' W 080°10'0 0.0
2018-Apr-19 13:58N 25°47' W 080°10'0 0.0
2018-Apr-19 13:28N 25°47' W 080°10'0 0.0
2018-Apr-19 12:58N 25°47' W 080°10'0 0.0
2018-Apr-19 12:28N 25°47' W 080°10'0 0.0
2018-Apr-19 11:58N 25°47' W 080°10'0 0.0
2018-Apr-19 11:28N 25°47' W 080°10'0 0.0
2018-Apr-19 10:58N 25°47' W 080°10'0 0.8
2018-Apr-19 10:30N 25°47' W 080°11'1 2.9
2018-Apr-19 10:00N 25°46' W 080°09'510.4
2018-Apr-19 09:30N 25°46' W 080°03'5 9.4
2018-Apr-19 09:00N 25°46' W 079°58'5 9.5
2018-Apr-19 08:30N 25°46' W 079°53'713.9
2018-Apr-19 08:00N 25°46' W 079°45'713.2
2018-Apr-19 07:30N 25°51' W 079°40'1813.6
2018-Apr-19 06:08N 26°06' W 079°28'213.4
2018-Apr-19 05:57N 26°08' W 079°26'714.5
2018-Apr-19 05:30N 26°13' W 079°21'917.4
2018-Apr-19 05:00N 26°13' W 079°11'918.0
2018-Apr-19 04:29N 26°12' W 079°01'817.5
2018-Apr-19 04:00N 26°09' W 078°52'3016.6
2018-Apr-19 02:12N 26°02' W 078°20'415.8
2018-Apr-19 01:58N 26°01' W 078°16'1015.8
2018-Apr-19 01:20N 25°58' W 078°05'616.0
2018-Apr-19 00:57N 25°56' W 077°59'916.2
2018-Apr-19 00:22N 25°54' W 077°49'617.0
2018-Apr-19 00:01N 25°52' W 077°42'917.0
2018-Apr-18 23:30N 25°50' W 077°33'40310.0
2018-Apr-17 07:00N 22°00' W 071°30'9115.1 130 / 151016.910.8 25.020.425.0
2018-Apr-17 01:00N 22°36' W 073°00'26311.4 110 / 91018.310.8 26.023.124.8
2018-Apr-16 02:00N 25°36' W 076°30'   150 / 271019.010.8 26.023.124.0

Dump ship's entire track history